createdAt,value
2018-08-04T00:00:14.006Z,63.66
2018-08-04T00:01:13.954Z,63.76
2018-08-04T00:02:13.937Z,62.96
2018-08-04T00:03:13.927Z,64.06
2018-08-04T00:04:13.921Z,63.66
2018-08-04T00:05:13.919Z,64.18
2018-08-04T00:06:13.944Z,64.06
2018-08-04T00:07:13.890Z,64.06
2018-08-04T00:08:13.709Z,64.18
2018-08-04T00:09:13.867Z,64.15
2018-08-04T00:10:13.852Z,64.36
2018-08-04T00:11:14.045Z,63.98
2018-08-04T00:12:13.834Z,63.85
2018-08-04T00:13:13.712Z,64.15
2018-08-04T00:14:13.809Z,63.79
2018-08-04T00:15:13.800Z,64.18
2018-08-04T00:16:13.793Z,64.18
2018-08-04T00:17:13.837Z,64.18
2018-08-04T00:18:13.776Z,63.89
2018-08-04T00:19:13.752Z,64.28
2018-08-04T00:20:13.747Z,63.89
2018-08-04T00:21:13.734Z,63.89
2018-08-04T00:22:13.727Z,63.79
2018-08-04T00:23:13.750Z,63.69
2018-08-04T00:24:13.705Z,64.18
2018-08-04T00:25:13.560Z,64.18
2018-08-04T00:26:13.682Z,64.18
2018-08-04T00:27:13.683Z,64.48
2018-08-04T00:28:13.706Z,64.48
2018-08-04T00:29:13.644Z,64.09
2018-08-04T00:30:13.658Z,63.98
2018-08-04T00:31:13.643Z,64.48
2018-08-04T00:32:13.620Z,64.18
2018-08-04T00:33:13.442Z,64.39
2018-08-04T00:34:13.789Z,64.78
2018-08-04T00:35:13.584Z,64.39
2018-08-04T00:36:13.574Z,64.39
2018-08-04T00:37:13.568Z,64.28
2018-08-04T00:38:13.540Z,64.58
2018-08-04T00:39:13.533Z,64.28
2018-08-04T00:40:13.575Z,64.39
2018-08-04T00:41:13.526Z,64.39
2018-08-04T00:42:13.505Z,64.39
2018-08-04T00:43:13.492Z,64.78
2018-08-04T00:44:13.485Z,64.18
2018-08-04T00:45:13.636Z,64.39
2018-08-04T00:46:13.463Z,64.69
2018-08-04T00:47:13.446Z,64.69
2018-08-04T00:48:13.442Z,64.39
2018-08-04T00:49:13.424Z,64.18
2018-08-04T00:50:13.419Z,64.88
2018-08-04T00:51:13.452Z,64.98
2018-08-04T00:52:13.397Z,64.69
2018-08-04T00:53:13.375Z,64.88
2018-08-04T00:54:13.374Z,64.78
2018-08-04T00:55:13.369Z,64.69
2018-08-04T00:56:13.415Z,65.08
2018-08-04T00:57:13.340Z,65.38
2018-08-04T00:58:13.339Z,64.98
2018-08-04T00:59:13.319Z,65.08
2018-08-04T01:00:13.317Z,64.88
2018-08-04T01:01:13.300Z,65.88
2018-08-04T01:02:13.482Z,65.98
2018-08-04T01:03:13.273Z,65.58
2018-08-04T01:04:13.273Z,65.78
2018-08-04T01:05:13.259Z,65.98
2018-08-04T01:06:13.242Z,66.08
2018-08-04T01:07:13.233Z,65.98
2018-08-04T01:08:13.265Z,66.11
2018-08-04T01:09:13.214Z,66.20
2018-08-04T01:10:13.225Z,66.01
2018-08-04T01:11:13.192Z,66.01
2018-08-04T01:12:13.177Z,66.27
2018-08-04T01:13:13.262Z,66.01
2018-08-04T01:14:13.159Z,66.11
2018-08-04T01:15:13.152Z,66.31
2018-08-04T01:16:13.136Z,66.11
2018-08-04T01:17:13.124Z,66.11
2018-08-04T01:18:13.156Z,66.20
2018-08-04T01:19:13.106Z,66.41
2018-08-04T01:20:13.089Z,66.31
2018-08-04T01:21:13.085Z,66.50
2018-08-04T01:22:13.080Z,66.61
2018-08-04T01:23:13.195Z,66.71
2018-08-04T01:24:13.051Z,66.71
2018-08-04T01:25:13.045Z,66.71
2018-08-04T01:26:13.027Z,67.03
2018-08-04T01:27:13.021Z,67.10
2018-08-04T01:28:13.009Z,67.03
2018-08-04T01:29:13.197Z,67.13
2018-08-04T01:30:12.989Z,67.24
2018-08-04T01:31:12.970Z,67.24
2018-08-04T01:32:12.965Z,67.24
2018-08-04T01:33:12.949Z,67.30
2018-08-04T01:34:13.982Z,67.03
2018-08-04T01:35:12.974Z,67.43
2018-08-04T01:36:12.925Z,67.24
2018-08-04T01:37:12.913Z,67.33
2018-08-04T01:38:12.896Z,67.63
2018-08-04T01:39:12.889Z,67.43
2018-08-04T01:40:12.918Z,67.73
2018-08-04T01:41:12.864Z,67.73
2018-08-04T01:42:12.855Z,67.83
2018-08-04T01:43:12.851Z,68.23
2018-08-04T01:44:12.834Z,68.13
2018-08-04T01:45:12.860Z,68.76
2018-08-04T01:46:12.812Z,68.86
2018-08-04T01:47:12.802Z,68.79
2018-08-04T01:48:12.790Z,69.06
2018-08-04T01:49:12.780Z,69.29
2018-08-04T01:50:12.816Z,69.36
2018-08-04T01:51:12.761Z,68.76
2018-08-04T01:52:12.779Z,69.26
2018-08-04T01:53:12.732Z,69.26
2018-08-04T01:54:12.732Z,69.89
2018-08-04T01:55:12.711Z,69.69
2018-08-04T01:56:12.762Z,69.36
2018-08-04T01:57:12.699Z,69.59
2018-08-04T01:58:12.682Z,70.09
2018-08-04T01:59:12.688Z,69.79
2018-08-04T02:00:12.655Z,70.09
2018-08-04T02:01:12.649Z,70.49
2018-08-04T02:02:12.679Z,70.42
2018-08-04T02:03:12.626Z,69.92
2018-08-04T02:04:12.615Z,70.23
2018-08-04T02:05:12.606Z,70.09
2018-08-04T02:06:12.586Z,69.82
2018-08-04T02:07:12.646Z,70.09
2018-08-04T02:08:12.574Z,69.20
2018-08-04T02:09:12.566Z,69.39
2018-08-04T02:10:13.542Z,69.59
2018-08-04T02:11:12.547Z,69.49
2018-08-04T02:12:12.533Z,69.46
2018-08-04T02:13:12.565Z,68.96
2018-08-04T02:14:12.510Z,68.96
2018-08-04T02:15:12.494Z,69.26
2018-08-04T02:16:12.479Z,68.76
2018-08-04T02:17:12.483Z,68.86
2018-08-04T02:18:12.616Z,69.26
2018-08-04T02:19:12.445Z,69.06
2018-08-04T02:20:12.449Z,69.46
2018-08-04T02:21:12.427Z,69.56
2018-08-04T02:22:12.420Z,68.96
2018-08-04T02:23:12.408Z,68.96
2018-08-04T02:24:12.454Z,69.89
2018-08-04T02:25:12.387Z,70.16
2018-08-04T02:26:12.374Z,69.76
2018-08-04T02:27:12.366Z,70.06
2018-08-04T02:28:12.356Z,69.26
2018-08-04T02:29:12.350Z,69.76
2018-08-04T02:30:12.382Z,69.59
2018-08-04T02:31:12.342Z,69.06
2018-08-04T02:32:12.321Z,69.66
2018-08-04T02:33:12.296Z,69.39
2018-08-04T02:34:12.286Z,69.66
2018-08-04T02:35:12.328Z,69.56
2018-08-04T02:36:12.269Z,69.56
2018-08-04T02:37:12.265Z,69.36
2018-08-04T02:38:12.249Z,68.76
2018-08-04T02:39:12.237Z,69.89
2018-08-04T02:40:12.374Z,69.06
2018-08-04T02:41:12.216Z,69.20
2018-08-04T02:42:12.201Z,69.46
2018-08-04T02:43:12.199Z,69.36
2018-08-04T02:44:12.179Z,69.16
2018-08-04T02:45:12.175Z,69.36
2018-08-04T02:46:12.222Z,69.66
2018-08-04T02:47:12.157Z,69.36
2018-08-04T02:48:12.139Z,69.56
2018-08-04T02:49:12.115Z,69.79
2018-08-04T02:50:12.125Z,69.56
2018-08-04T02:51:12.103Z,70.19
2018-08-04T02:52:12.141Z,70.19
2018-08-04T02:53:12.082Z,69.79
2018-08-04T02:54:12.075Z,69.99
2018-08-04T02:55:12.057Z,69.99
2018-08-04T02:56:12.056Z,70.16
2018-08-04T02:57:12.093Z,69.99
2018-08-04T02:58:12.037Z,69.69
2018-08-04T02:59:13.021Z,70.39
2018-08-04T03:00:12.007Z,70.19
2018-08-04T03:01:12.000Z,70.39
2018-08-04T03:02:12.193Z,70.49
2018-08-04T03:03:11.974Z,70.42
2018-08-04T03:04:11.955Z,70.32
2018-08-04T03:05:11.957Z,70.62
2018-08-04T03:06:11.938Z,71.06
2018-08-04T03:07:11.936Z,71.36
2018-08-04T03:08:11.988Z,72.29
2018-08-04T03:09:11.914Z,71.99
2018-08-04T03:10:11.902Z,72.29
2018-08-04T03:11:11.891Z,72.69
2018-08-04T03:12:11.895Z,72.42
2018-08-04T03:13:11.892Z,72.39
2018-08-04T03:14:11.764Z,72.39
2018-08-04T03:15:11.854Z,72.62
2018-08-04T03:16:11.833Z,72.82
2018-08-04T03:17:11.833Z,73.16
2018-08-04T03:18:11.822Z,73.75
2018-08-04T03:19:11.952Z,73.75
2018-08-04T03:20:11.796Z,74.49
2018-08-04T03:21:11.789Z,74.69
2018-08-04T03:22:11.769Z,74.79
2018-08-04T03:23:11.766Z,75.13
2018-08-04T03:24:11.745Z,75.33
2018-08-04T03:25:11.782Z,75.43
2018-08-04T03:26:11.737Z,75.52
2018-08-04T03:27:11.712Z,75.43
2018-08-04T03:28:11.710Z,75.43
2018-08-04T03:29:11.706Z,75.33
2018-08-04T03:30:11.839Z,75.23
2018-08-04T03:31:11.670Z,74.99
2018-08-04T03:32:11.659Z,74.49
2018-08-04T03:33:11.667Z,74.29
2018-08-04T03:34:11.637Z,74.29
2018-08-04T03:35:11.631Z,74.05
2018-08-04T03:36:11.831Z,73.56
2018-08-04T03:37:11.608Z,72.96
2018-08-04T03:38:11.595Z,73.25
2018-08-04T03:39:11.583Z,72.86
2018-08-04T03:40:11.577Z,72.86
2018-08-04T03:41:11.569Z,72.82
2018-08-04T03:42:11.597Z,72.62
2018-08-04T03:43:11.547Z,72.32
2018-08-04T03:44:11.542Z,72.52
2018-08-04T03:45:11.516Z,72.13
2018-08-04T03:46:11.508Z,72.32
2018-08-04T03:47:11.549Z,72.09
2018-08-04T03:48:11.491Z,72.09
2018-08-04T03:49:11.477Z,71.89
2018-08-04T03:50:11.465Z,72.19
2018-08-04T03:51:11.453Z,72.19
2018-08-04T03:52:11.495Z,71.99
2018-08-04T03:53:11.445Z,72.19
2018-08-04T03:54:11.425Z,72.16
2018-08-04T03:55:11.408Z,71.89
2018-08-04T03:56:11.405Z,72.29
2018-08-04T03:57:11.392Z,71.36
2018-08-04T03:58:11.430Z,71.45
2018-08-04T03:59:11.368Z,71.15
2018-08-04T04:00:11.362Z,71.09
2018-08-04T04:01:11.344Z,71.36
2018-08-04T04:02:11.337Z,71.06
2018-08-04T04:03:11.324Z,70.95
2018-08-04T04:04:11.352Z,71.09
2018-08-04T04:05:11.313Z,70.65
2018-08-04T04:06:11.298Z,70.65
2018-08-04T04:07:11.290Z,70.65
2018-08-04T04:08:11.273Z,70.69
2018-08-04T04:09:11.307Z,70.65
2018-08-04T04:10:11.236Z,70.86
2018-08-04T04:11:11.241Z,71.09
2018-08-04T04:12:11.229Z,71.29
2018-08-04T04:13:11.211Z,70.79
2018-08-04T04:14:11.248Z,70.79
2018-08-04T04:15:11.190Z,71.09
2018-08-04T04:16:11.187Z,71.49
2018-08-04T04:17:11.186Z,71.62
2018-08-04T04:18:11.167Z,71.92
2018-08-04T04:19:11.077Z,72.26
2018-08-04T04:20:11.143Z,72.76
2018-08-04T04:21:11.133Z,73.16
2018-08-04T04:22:11.129Z,73.39
2018-08-04T04:23:11.108Z,74.13
2018-08-04T04:24:10.971Z,74.73
2018-08-04T04:25:11.103Z,74.93
2018-08-04T04:26:11.076Z,75.26
2018-08-04T04:27:11.075Z,74.96
2018-08-04T04:28:11.058Z,74.66
2018-08-04T04:29:11.095Z,74.46
2018-08-04T04:30:11.034Z,74.73
2018-08-04T04:31:11.033Z,74.63
2018-08-04T04:32:11.016Z,74.13
2018-08-04T04:33:10.999Z,74.03
2018-08-04T04:34:11.013Z,73.99
2018-08-04T04:35:10.980Z,73.39
2018-08-04T04:36:10.974Z,72.99
2018-08-04T04:37:10.959Z,72.99
2018-08-04T04:38:10.783Z,72.26
2018-08-04T04:39:10.973Z,72.06
2018-08-04T04:40:10.928Z,72.49
2018-08-04T04:41:10.916Z,72.39
2018-08-04T04:42:10.900Z,72.16
2018-08-04T04:43:10.893Z,72.16
2018-08-04T04:44:10.941Z,72.36
2018-08-04T04:45:10.880Z,71.72
2018-08-04T04:46:10.694Z,71.03
2018-08-04T04:47:10.859Z,70.83
2018-08-04T04:48:10.839Z,70.32
2018-08-04T04:49:10.845Z,70.79
2018-08-04T04:50:10.871Z,70.39
2018-08-04T04:51:10.820Z,70.59
2018-08-04T04:52:10.800Z,69.96
2018-08-04T04:53:10.788Z,69.69
2018-08-04T04:54:10.784Z,69.96
2018-08-04T09:01:05.587Z,24.85
2018-08-04T09:02:05.558Z,23.86
2018-08-04T09:03:05.553Z,24.23
2018-08-04T09:04:05.523Z,23.84
2018-08-04T09:05:05.501Z,24.41
2018-08-04T09:06:05.495Z,23.25
2018-08-04T09:07:05.536Z,25.09
2018-08-04T09:08:05.608Z,23.27
2018-08-04T09:09:05.475Z,23.96
2018-08-04T09:10:05.464Z,25.18
2018-08-04T09:11:05.468Z,25.45
2018-08-04T09:12:05.490Z,23.33
2018-08-04T09:13:05.448Z,22.64
2018-08-04T09:14:05.438Z,23.24
2018-08-04T09:15:05.448Z,23.17
2018-08-04T09:16:05.440Z,23.42
2018-08-04T09:17:05.868Z,26.38
2018-08-04T09:18:05.412Z,23.12
2018-08-04T09:19:05.408Z,23.58
2018-08-04T09:20:05.399Z,25.20
2018-08-04T09:21:05.385Z,23.84
2018-08-04T09:22:05.384Z,25.18
2018-08-04T09:23:05.489Z,24.34
2018-08-04T09:24:05.531Z,23.39
2018-08-04T09:25:05.360Z,22.52
2018-08-04T09:26:05.356Z,23.94
2018-08-04T09:27:05.345Z,25.09
2018-08-04T09:28:05.353Z,22.69
2018-08-04T09:29:05.517Z,21.72
2018-08-04T09:30:05.332Z,23.92
2018-08-04T09:31:05.480Z,25.27
2018-08-04T09:32:05.468Z,23.66
2018-08-04T09:33:05.512Z,22.80
2018-08-04T09:34:05.422Z,22.11
2018-08-04T09:35:05.974Z,23.83
2018-08-04T09:36:05.329Z,22.34
2018-08-04T09:37:05.389Z,25.73
2018-08-04T09:38:05.337Z,24.21
2018-08-04T09:39:05.311Z,24.30
2018-08-04T09:40:05.508Z,23.33
2018-08-04T09:41:05.356Z,24.20
2018-08-04T09:42:05.445Z,25.99
2018-08-04T09:43:05.418Z,26.19
2018-08-04T09:44:05.227Z,25.11
2018-08-04T09:45:05.430Z,22.32
2018-08-04T09:46:05.388Z,22.02
2018-08-04T09:47:05.370Z,23.27
2018-08-04T09:48:05.372Z,25.11
2018-08-04T09:49:05.537Z,25.52
2018-08-04T09:50:05.356Z,22.36
2018-08-04T09:51:05.368Z,25.23
2018-08-04T09:52:05.384Z,26.92
2018-08-04T09:53:05.433Z,24.84
2018-08-04T09:54:05.522Z,25.20
2018-08-04T09:55:05.246Z,24.30
2018-08-04T09:56:05.662Z,23.80
2018-08-04T09:57:05.167Z,23.22
2018-08-04T09:58:05.291Z,21.98
2018-08-04T09:59:05.347Z,23.35
2018-08-04T10:00:05.649Z,22.86
2018-08-04T10:01:07.109Z,24.03
2018-08-04T10:02:05.292Z,23.93
2018-08-04T10:03:05.173Z,23.72
2018-08-04T10:04:05.317Z,23.31
2018-08-04T10:05:05.088Z,22.54
2018-08-04T10:06:06.572Z,23.11
2018-08-04T10:07:05.241Z,21.88
2018-08-04T10:08:05.230Z,21.34
2018-08-04T10:09:05.220Z,23.11
2018-08-04T10:10:05.212Z,23.98
2018-08-04T10:11:05.270Z,25.21
2018-08-04T10:12:05.213Z,22.80
2018-08-04T10:13:05.191Z,24.54
2018-08-04T10:14:05.201Z,23.57
2018-08-04T10:15:05.165Z,22.22
2018-08-04T10:16:05.002Z,24.88
2018-08-04T10:17:05.211Z,23.55
2018-08-04T10:18:05.158Z,22.79
2018-08-04T10:19:05.178Z,23.84
2018-08-04T10:20:05.133Z,22.58
2018-08-04T10:21:05.134Z,22.46
2018-08-04T10:22:05.188Z,24.08
2018-08-04T10:23:05.118Z,22.17
2018-08-04T10:24:05.103Z,24.39
2018-08-04T10:25:05.108Z,22.48
2018-08-04T10:26:05.099Z,22.38
2018-08-04T10:27:05.080Z,22.09
2018-08-04T10:28:05.226Z,22.96
2018-08-04T10:29:05.060Z,23.71
2018-08-04T10:30:05.062Z,21.02
2018-08-04T10:31:05.067Z,20.94
2018-08-04T10:32:05.175Z,21.32
2018-08-04T10:33:05.051Z,22.14
2018-08-04T10:34:05.087Z,24.24
2018-08-04T10:35:05.034Z,25.36
2018-08-04T10:36:05.030Z,25.95
2018-08-04T10:37:04.850Z,26.54
2018-08-04T10:38:05.010Z,25.56
2018-08-04T10:39:05.063Z,25.94
2018-08-04T10:40:05.007Z,26.50
2018-08-04T10:41:05.000Z,24.35
2018-08-04T10:42:04.979Z,26.77
2018-08-04T10:43:04.979Z,25.43
2018-08-04T10:44:05.249Z,27.55
2018-08-04T10:45:04.955Z,24.45
2018-08-04T10:46:04.946Z,26.76
2018-08-04T10:47:04.946Z,26.42
2018-08-04T10:48:04.785Z,26.27
2018-08-04T10:49:04.947Z,29.00
2018-08-04T10:50:04.976Z,28.19
2018-08-04T10:51:04.906Z,25.66
2018-08-04T10:52:04.902Z,25.37
2018-08-04T10:53:04.899Z,26.52
2018-08-04T10:54:04.953Z,27.19
2018-08-04T10:55:04.888Z,25.43
2018-08-04T10:56:04.947Z,26.59
2018-08-04T10:57:04.919Z,25.32
2018-08-04T10:58:04.711Z,26.28
2018-08-04T10:59:04.756Z,24.15
2018-08-04T11:00:04.848Z,24.28
2018-08-04T11:01:04.897Z,24.21
2018-08-04T11:02:04.836Z,24.52
2018-08-04T11:03:04.833Z,24.83
2018-08-04T11:04:04.844Z,24.84
2018-08-04T11:05:04.818Z,27.73
2018-08-04T11:06:05.004Z,23.85
2018-08-04T11:07:04.813Z,23.46
2018-08-04T11:08:04.780Z,23.16
2018-08-04T11:09:04.774Z,26.65
2018-08-04T11:10:04.609Z,26.86
2018-08-04T11:11:04.769Z,27.26
2018-08-04T11:12:05.023Z,28.22
2018-08-04T11:13:04.760Z,29.41
2018-08-04T11:14:04.747Z,30.22
2018-08-04T11:15:04.729Z,31.41
2018-08-04T11:16:04.718Z,30.54
2018-08-04T11:17:04.716Z,29.66
2018-08-04T11:18:04.801Z,29.66
2018-08-04T11:19:04.701Z,29.97
2018-08-04T11:20:04.580Z,29.39
2018-08-04T11:21:04.695Z,30.77
2018-08-04T11:22:04.698Z,30.19
2018-08-04T11:23:04.851Z,30.29
2018-08-04T11:24:04.712Z,30.38
2018-08-04T11:25:04.672Z,31.35
2018-08-04T11:26:04.647Z,30.19
2018-08-04T11:27:04.643Z,32.82
2018-08-04T11:28:04.637Z,33.31
2018-08-04T11:29:04.723Z,34.12
2018-08-04T11:30:04.455Z,33.34
2018-08-04T11:31:04.617Z,33.72
2018-08-04T11:32:04.605Z,30.70
2018-08-04T11:33:04.590Z,31.77
2018-08-04T11:34:04.786Z,30.60
2018-08-04T11:35:04.583Z,31.67
2018-08-04T11:36:05.564Z,30.99
2018-08-04T11:37:04.566Z,30.52
2018-08-04T11:38:04.560Z,34.14
2018-08-04T11:42:33.935Z,29.75
2018-08-04T11:43:21.743Z,31.10
2018-08-04T11:45:39.178Z,30.42
2018-08-04T14:01:31.490Z,32.14
2018-08-04T14:02:31.496Z,30.29
2018-08-04T14:03:31.685Z,30.47
2018-08-04T14:04:31.642Z,29.88
2018-08-04T14:05:32.564Z,34.77
2018-08-04T14:06:31.577Z,30.77
2018-08-04T14:07:31.622Z,30.40
2018-08-04T14:08:32.167Z,30.20
2018-08-04T14:09:31.683Z,31.57
2018-08-04T14:10:31.319Z,32.75
2018-08-04T14:11:31.375Z,30.59
2018-08-04T14:12:31.325Z,35.77
2018-08-04T14:13:31.271Z,36.30
2018-08-04T14:14:32.065Z,32.19
2018-08-04T14:15:31.253Z,36.88
2018-08-04T14:16:31.226Z,31.81
2018-08-04T14:17:31.326Z,36.51
2018-08-04T14:18:31.247Z,38.57
2018-08-04T14:19:31.197Z,39.31
2018-08-04T14:20:31.253Z,38.92
2018-08-04T14:21:32.163Z,37.35
2018-08-04T14:22:31.307Z,35.97
2018-08-04T14:23:31.359Z,35.76
2018-08-04T14:24:42.761Z,35.85
2018-08-04T14:26:41.100Z,35.83
2018-08-04T14:27:41.314Z,35.91
2018-08-04T14:28:41.427Z,36.98
2018-08-04T14:29:41.241Z,35.71
2018-08-04T14:30:41.198Z,37.96
2018-08-04T14:31:41.257Z,36.40
2018-08-04T14:32:41.198Z,38.96
2018-08-04T14:33:41.197Z,38.37
2018-08-04T14:34:41.242Z,37.00
2018-08-04T14:35:41.175Z,39.35
2018-08-04T14:36:41.158Z,34.94
2018-08-04T14:37:41.124Z,36.10
2018-08-04T14:39:58.043Z,37.75
2018-08-04T14:40:57.984Z,38.35
2018-08-04T14:41:57.985Z,35.61
2018-08-04T14:42:57.918Z,38.24
2018-08-04T14:43:57.946Z,34.93
2018-08-04T14:44:57.991Z,38.75
2018-08-04T14:46:52.279Z,38.57
2018-08-04T14:47:52.351Z,37.98
2018-08-04T14:48:52.348Z,34.36
2018-08-04T14:50:54.225Z,38.49
2018-08-04T19:04:32.354Z,44.84
2018-08-04T19:05:32.338Z,44.45
2018-08-04T19:06:32.270Z,45.83
2018-08-04T19:07:32.265Z,47.11
2018-08-04T19:08:32.249Z,46.42
2018-08-04T19:09:32.238Z,46.81
2018-08-04T19:10:32.273Z,46.91
2018-08-04T19:11:32.129Z,47.21
2018-08-04T19:12:32.044Z,47.82
2018-08-04T19:13:32.203Z,47.03
2018-08-04T19:14:32.203Z,47.03
2018-08-04T19:15:35.394Z,46.94
2018-08-04T19:19:31.475Z,47.92
2018-08-04T19:20:22.765Z,47.72
2018-08-04T19:21:23.076Z,47.72
2018-08-04T19:22:22.776Z,47.72
2018-08-04T19:23:32.341Z,46.84
2018-08-04T19:24:22.711Z,48.71
2018-08-04T19:25:24.594Z,47.82
2018-08-04T19:26:36.379Z,46.25
2018-08-04T19:27:26.010Z,47.03
2018-08-04T19:28:23.773Z,47.13
2018-08-04T19:29:22.786Z,48.12
2018-08-04T19:30:27.572Z,47.03
2018-08-04T19:31:27.726Z,46.44
2018-08-04T19:32:22.766Z,46.64
2018-08-04T19:33:22.700Z,45.75
2018-08-04T19:34:23.521Z,45.46
2018-08-04T19:35:22.586Z,44.57
2018-08-04T19:36:22.636Z,44.94
2018-08-04T19:37:25.955Z,43.96
2018-08-04T19:38:28.029Z,44.74
2018-08-04T19:39:33.839Z,44.15
2018-08-04T19:40:34.633Z,45.04
2018-08-04T19:41:22.937Z,45.83
2018-08-04T19:42:23.548Z,46.12
2018-08-04T19:43:22.543Z,46.42
2018-08-04T19:44:22.533Z,46.12
2018-08-04T19:45:27.113Z,46.15
2018-08-04T19:46:35.254Z,47.01
2018-08-04T19:47:23.463Z,46.74
2018-08-04T19:48:24.265Z,46.74
2018-08-04T19:49:24.022Z,46.84
2018-08-04T19:50:27.996Z,46.64
2018-08-04T19:51:22.726Z,46.44
2018-08-04T19:52:27.487Z,47.23
2018-08-04T19:53:29.129Z,46.76
2018-08-04T19:54:23.090Z,46.66
2018-08-04T19:55:33.144Z,46.66
2018-08-04T19:56:22.468Z,46.84
2018-08-04T19:57:33.272Z,46.66
2018-08-04T19:58:22.556Z,46.17
2018-08-04T19:59:27.367Z,47.25
2018-08-04T20:00:22.390Z,46.86
2018-08-04T20:01:33.170Z,47.45
2018-08-04T20:02:22.598Z,46.26
2018-08-04T20:03:22.690Z,47.16
2018-08-04T20:10:06.393Z,47.18
2018-08-04T20:11:07.380Z,47.45
2018-08-04T20:12:14.318Z,47.47
2018-08-04T20:13:23.309Z,47.45
2018-08-04T20:14:13.393Z,46.98
2018-08-04T20:15:06.541Z,47.18
2018-08-04T20:16:17.238Z,47.18
2018-08-04T20:17:06.455Z,47.25
2018-08-04T20:18:13.092Z,47.08
2018-08-04T20:19:07.494Z,46.37
2018-08-04T21:25:51.018Z,54.24
2018-08-04T21:26:51.041Z,55.92
2018-08-04T21:27:50.946Z,56.61
2018-08-04T21:28:50.874Z,61.25
2018-08-04T21:29:51.026Z,62.47
2018-08-04T21:30:50.935Z,66.29
2018-08-04T21:31:50.865Z,71.80
2018-08-04T21:32:50.856Z,69.16
2018-08-04T21:33:50.917Z,69.20
2018-08-04T21:34:50.918Z,70.25
2018-08-04T21:35:50.906Z,70.48
2018-08-04T21:36:50.832Z,72.54
2018-08-04T21:37:50.852Z,74.52
2018-08-04T21:38:50.993Z,72.87
2018-08-04T21:39:50.761Z,70.59
2018-08-04T21:40:50.811Z,71.81
2018-08-04T21:41:50.795Z,73.50
2018-08-04T21:42:50.770Z,72.11
2018-08-04T21:43:50.749Z,72.01
2018-08-04T21:44:50.795Z,72.21
2018-08-04T21:45:50.832Z,74.20
2018-08-04T21:46:50.750Z,72.44
2018-08-04T21:47:50.665Z,75.49
2018-08-04T21:48:50.689Z,76.29
2018-08-04T21:49:50.730Z,73.64
2018-08-04T21:50:50.472Z,72.41
2018-08-04T21:51:50.467Z,75.53
2018-08-04T21:52:50.466Z,73.84
2018-08-04T21:53:50.444Z,72.25
2018-08-04T21:54:50.554Z,72.34
2018-08-04T21:55:50.431Z,72.44
2018-08-04T21:56:50.416Z,72.05
2018-08-04T21:57:50.630Z,72.74
2018-08-04T21:58:50.659Z,71.84
2018-08-04T21:59:50.744Z,69.92
2018-08-04T22:00:52.379Z,70.32
2018-08-04T22:01:50.627Z,69.43
2018-08-04T22:02:51.219Z,70.42
2018-08-04T22:03:50.604Z,70.42
2018-08-04T22:05:01.570Z,70.32
2018-08-04T22:05:50.723Z,71.75
2018-08-04T22:06:52.753Z,70.22
2018-08-04T22:08:02.039Z,69.82
2018-08-04T22:08:50.456Z,71.05
2018-08-04T22:10:02.655Z,71.95
2018-08-04T22:10:52.196Z,69.66
2018-08-04T22:11:50.246Z,70.56
2018-08-04T22:12:50.298Z,70.06
2018-08-04T22:13:50.222Z,70.56
2018-08-04T22:14:53.134Z,69.96
2018-08-04T22:15:55.323Z,69.36
2018-08-04T22:16:50.198Z,73.14
2018-08-04T22:17:50.186Z,71.84
2018-08-04T22:18:50.341Z,70.15
2018-08-04T22:19:50.329Z,68.96
2018-08-04T22:20:50.343Z,70.06
2018-08-04T22:21:50.360Z,71.84
2018-08-04T22:22:50.285Z,73.34
2018-08-04T22:23:50.279Z,70.26
2018-08-04T22:24:50.107Z,69.96
2018-08-04T22:25:50.265Z,70.75
2018-08-04T22:26:50.278Z,69.96
2018-08-04T22:27:50.619Z,70.56
2018-08-04T22:28:50.236Z,70.75
2018-08-04T22:29:50.306Z,70.72
